Time;durP1;ratioP1;P1;durP2;ratioP2;P2;SDS_P1;SDS_P2;PMS_P1;PMS_P2;Temp;Humidity;BMP_temperature;BMP_pressure;BME280_temperature;BME280_humidity;BME280_pressure;Samples;Min_cycle;Max_cycle;Signal;HPM_P1;HPM_P2
2022/11/11 00:04:27;;;;;;;6.20;2.33;;;;;;;;;;5013210;28;20662;-80
2022/11/11 00:07:12;;;;;;;7.55;2.00;;;;;;;;;;5011631;28;20038;-81
2022/11/11 00:09:58;;;;;;;9.82;1.90;;;;;;;;;;5012698;28;20179;-82
2022/11/11 00:12:44;;;;;;;7.30;2.05;;;;;;;;;;5014348;28;20056;-83
2022/11/11 00:15:37;;;;;;;9.95;2.17;;;;;;;;;;5012285;28;20690;-82
2022/11/11 00:27:42;;;;;;;8.95;3.60;;;;;;;;;;5012364;28;20033;-82
2022/11/11 00:30:28;;;;;;;8.20;2.50;;;;;;;;;;5013188;28;20049;-83
2022/11/11 00:33:14;;;;;;;6.38;2.80;;;;;;;;;;5009835;28;20045;-82
2022/11/11 00:36:01;;;;;;;8.10;2.60;;;;;;;;;;5009722;28;20038;-82
2022/11/11 00:38:46;;;;;;;9.35;2.85;;;;;;;;;;4998505;28;20057;-83
2022/11/11 00:41:32;;;;;;;9.43;2.72;;;;;;;;;;5012392;28;20046;-83
2022/11/11 00:44:18;;;;;;;12.20;3.40;;;;;;;;;;5008935;28;20144;-82
2022/11/11 00:53:26;;;;;;;8.75;3.40;;;;;;;;;;5011933;28;20049;-83
2022/11/11 00:56:18;;;;;;;5.65;2.80;;;;;;;;;;5009587;28;20512;-82
2022/11/11 00:59:06;;;;;;;11.60;3.22;;;;;;;;;;5011816;28;20410;-82
2022/11/11 01:01:52;;;;;;;8.90;3.35;;;;;;;;;;5011476;28;20041;-81
2022/11/11 01:04:38;;;;;;;10.95;3.90;;;;;;;;;;5029934;28;20048;-83
2022/11/11 01:07:30;;;;;;;7.40;3.22;;;;;;;;;;5033049;28;20042;-82
2022/11/11 01:10:37;;;;;;;10.85;3.60;;;;;;;;;;5033524;28;20037;-82
2022/11/11 01:13:27;;;;;;;8.57;3.13;;;;;;;;;;5033041;28;20052;-82
2022/11/11 01:16:23;;;;;;;8.07;3.30;;;;;;;;;;5034360;28;20041;-83
2022/11/11 01:19:10;;;;;;;5.72;3.38;;;;;;;;;;5033396;28;20124;-82
2022/11/11 01:21:56;;;;;;;8.07;3.60;;;;;;;;;;5031823;28;20056;-83
2022/11/11 01:24:42;;;;;;;14.68;4.15;;;;;;;;;;5027199;28;20048;-82
2022/11/11 01:27:28;;;;;;;6.53;3.53;;;;;;;;;;5031993;28;20033;-82
2022/11/11 01:30:20;;;;;;;7.07;3.40;;;;;;;;;;5031594;28;20060;-82
2022/11/11 01:33:12;;;;;;;8.55;3.40;;;;;;;;;;5033161;28;20489;-83
2022/11/11 01:36:23;;;;;;;10.38;3.88;;;;;;;;;;5031091;28;20493;-82
2022/11/11 01:39:10;;;;;;;9.27;3.97;;;;;;;;;;5022257;28;20596;-82
2022/11/11 01:42:02;;;;;;;9.55;3.83;;;;;;;;;;5036011;28;20668;-83
2022/11/11 01:44:48;;;;;;;8.38;3.38;;;;;;;;;;5031752;28;20046;-82
2022/11/11 01:50:58;;;;;;;10.23;3.63;;;;;;;;;;5032194;28;20501;-82
2022/11/11 01:53:47;;;;;;;11.07;3.88;;;;;;;;;;5034006;28;20567;-82
2022/11/11 01:56:35;;;;;;;11.90;4.00;;;;;;;;;;5030708;28;20048;-81
2022/11/11 01:59:49;;;;;;;9.88;4.22;;;;;;;;;;5035004;28;20046;-82
2022/11/11 02:02:49;;;;;;;13.50;3.85;;;;;;;;;;5035765;28;20151;-82
2022/11/11 02:05:44;;;;;;;8.65;3.63;;;;;;;;;;5052577;28;20064;-79
2022/11/11 02:08:39;;;;;;;17.40;4.15;;;;;;;;;;5058891;28;20102;-81
2022/11/11 02:14:44;;;;;;;12.05;4.18;;;;;;;;;;5056285;28;20044;-81
2022/11/11 02:17:40;;;;;;;9.55;3.90;;;;;;;;;;5054927;28;20504;-81
2022/11/11 02:20:29;;;;;;;9.52;3.75;;;;;;;;;;5057205;28;20048;-81
2022/11/11 02:23:47;;;;;;;13.80;4.05;;;;;;;;;;5033733;28;20068;-81
2022/11/11 02:26:58;;;;;;;;;;;;;;;;;;5059529;28;20037;-81
2022/11/11 02:29:47;;;;;;;13.68;4.10;;;;;;;;;;5022374;28;20397;-81
2022/11/11 02:32:34;;;;;;;10.65;4.10;;;;;;;;;;5049429;28;20111;-80
2022/11/11 02:35:36;;;;;;;10.00;3.55;;;;;;;;;;5051722;28;20037;-80
2022/11/11 02:38:24;;;;;;;9.05;3.78;;;;;;;;;;5051893;28;20083;-81
2022/11/11 02:44:23;;;;;;;10.43;3.60;;;;;;;;;;5036157;28;20071;-80
2022/11/11 02:47:10;;;;;;;9.15;3.60;;;;;;;;;;5049079;28;20029;-80
2022/11/11 02:49:56;;;;;;;9.55;3.40;;;;;;;;;;5049235;28;20187;-81
2022/11/11 02:52:48;;;;;;;8.85;3.50;;;;;;;;;;5056057;28;20037;-80
2022/11/11 02:55:34;;;;;;;7.45;3.40;;;;;;;;;;5044889;28;20053;-80
2022/11/11 02:58:20;;;;;;;10.65;4.20;;;;;;;;;;5053503;28;20258;-81
2022/11/11 03:01:06;;;;;;;8.35;3.58;;;;;;;;;;5053227;28;20044;-81
2022/11/11 03:03:52;;;;;;;9.88;3.42;;;;;;;;;;5054958;28;20048;-81
2022/11/11 03:07:28;;;;;;;9.70;3.40;;;;;;;;;;5038281;28;20043;-81
2022/11/11 03:10:15;;;;;;;12.15;3.97;;;;;;;;;;5055229;28;20943;-81
2022/11/11 03:13:26;;;;;;;9.95;3.30;;;;;;;;;;5036496;28;20397;-80
2022/11/11 03:17:38;;;;;;;11.43;3.42;;;;;;;;;;5045426;28;20044;-80
2022/11/11 03:19:44;;;;;;;8.60;3.28;;;;;;;;;;5055768;28;20037;-80
2022/11/11 03:22:30;;;;;;;18.95;4.68;;;;;;;;;;5052641;28;20041;-81
2022/11/11 03:25:47;;;;;;;11.52;3.60;;;;;;;;;;5047896;28;20045;-81
2022/11/11 03:28:34;;;;;;;10.40;3.58;;;;;;;;;;5050430;28;20350;-80
2022/11/11 03:31:26;;;;;;;9.10;3.50;;;;;;;;;;5054461;28;20041;-81
2022/11/11 03:34:18;;;;;;;10.68;3.80;;;;;;;;;;5054767;28;20519;-81
2022/11/11 03:40:45;;;;;;;10.10;3.47;;;;;;;;;;5037177;28;20465;-80
2022/11/11 03:43:34;;;;;;;11.63;3.53;;;;;;;;;;5049480;28;20056;-81
2022/11/11 03:46:20;;;;;;;13.15;3.67;;;;;;;;;;5042160;28;20037;-80
2022/11/11 03:49:06;;;;;;;10.05;3.50;;;;;;;;;;5037286;28;20041;-80
2022/11/11 03:51:52;;;;;;;11.00;3.47;;;;;;;;;;5057616;28;20048;-80
2022/11/11 03:55:02;;;;;;;6.45;3.40;;;;;;;;;;5052942;28;20460;-81
2022/11/11 03:57:48;;;;;;;7.32;3.60;;;;;;;;;;5055953;28;20381;-82
2022/11/11 04:00:40;;;;;;;16.30;4.25;;;;;;;;;;5037689;28;20045;-80
2022/11/11 04:10:29;;;;;;;10.07;3.35;;;;;;;;;;5052212;28;20535;-82
2022/11/11 04:16:25;;;;;;;10.60;3.90;;;;;;;;;;5052719;28;20118;-80
2022/11/11 04:22:17;;;;;;;12.05;4.22;;;;;;;;;;5053436;28;20504;-81
2022/11/11 04:35:18;;;;;;;9.23;3.88;;;;;;;;;;5047151;28;20082;-80
2022/11/11 04:41:16;;;;;;;11.93;4.32;;;;;;;;;;5036952;28;20131;-80
2022/11/11 04:47:18;;;;;;;10.55;4.05;;;;;;;;;;5050025;28;20033;-81
2022/11/11 04:50:04;;;;;;;10.05;3.75;;;;;;;;;;5053986;28;20500;-81
2022/11/11 04:52:52;;;;;;;12.18;4.13;;;;;;;;;;5056078;28;20127;-81
2022/11/11 04:58:45;;;;;;;9.98;4.00;;;;;;;;;;5035099;28;20386;-81
2022/11/11 05:04:36;;;;;;;9.30;3.72;;;;;;;;;;5049958;28;20045;-81
2022/11/11 05:10:38;;;;;;;14.18;4.68;;;;;;;;;;5023357;28;20121;-80
2022/11/11 05:22:47;;;;;;;11.07;4.60;;;;;;;;;;5053882;28;20497;-80
2022/11/11 05:28:46;;;;;;;12.07;5.18;;;;;;;;;;5051734;28;20048;-81
2022/11/11 05:31:32;;;;;;;13.85;5.40;;;;;;;;;;5049625;28;20127;-80
2022/11/11 05:34:24;;;;;;;10.80;5.10;;;;;;;;;;5054956;28;20045;-81
2022/11/11 05:37:10;;;;;;;11.63;4.50;;;;;;;;;;5050278;28;20044;-80
2022/11/11 05:39:56;;;;;;;11.63;5.38;;;;;;;;;;5054586;28;20136;-81
2022/11/11 05:42:42;;;;;;;11.10;5.28;;;;;;;;;;5053926;28;20032;-80
2022/11/11 05:45:34;;;;;;;11.75;4.57;;;;;;;;;;5057986;28;20039;-80
2022/11/11 05:48:20;;;;;;;10.90;4.82;;;;;;;;;;5060622;28;20037;-81
2022/11/11 05:51:26;;;;;;;11.23;5.28;;;;;;;;;;5058325;28;20040;-81
2022/11/11 05:54:24;;;;;;;14.50;5.13;;;;;;;;;;5057121;28;20102;-80
2022/11/11 05:57:10;;;;;;;15.88;5.68;;;;;;;;;;5045698;28;20048;-81
2022/11/11 05:59:57;;;;;;;14.10;5.95;;;;;;;;;;5056099;28;20049;-81
2022/11/11 06:02:44;;;;;;;10.63;5.20;;;;;;;;;;5044883;28;20511;-80
2022/11/11 06:05:30;;;;;;;10.18;5.53;;;;;;;;;;5039482;28;20405;-81
2022/11/11 06:08:22;;;;;;;15.18;5.65;;;;;;;;;;5055698;28;20029;-80
2022/11/11 06:11:08;;;;;;;12.95;6.28;;;;;;;;;;5062543;28;20047;-81
2022/11/11 06:14:00;;;;;;;14.68;5.72;;;;;;;;;;5061036;28;20045;-81
2022/11/11 06:16:46;;;;;;;12.32;5.50;;;;;;;;;;5055651;28;20052;-80
2022/11/11 06:19:32;;;;;;;19.75;5.72;;;;;;;;;;5038066;28;20051;-80
2022/11/11 06:22:54;;;;;;;14.73;6.25;;;;;;;;;;5060290;28;20037;-81
2022/11/11 06:28:37;;;;;;;14.00;6.13;;;;;;;;;;5058804;28;20439;-81
2022/11/11 06:31:26;;;;;;;15.85;6.40;;;;;;;;;;5024977;28;20127;-81
2022/11/11 06:34:12;;;;;;;18.02;6.50;;;;;;;;;;5025024;28;20041;-81
2022/11/11 06:36:58;;;;;;;12.77;6.47;;;;;;;;;;5056427;28;20056;-82
2022/11/11 06:39:50;;;;;;;16.83;6.78;;;;;;;;;;5058783;28;20067;-81
2022/11/11 06:42:37;;;;;;;12.52;6.50;;;;;;;;;;5056496;28;20044;-81
2022/11/11 06:45:53;;;;;;;13.73;5.88;;;;;;;;;;5037499;28;20047;-81
2022/11/11 06:48:41;;;;;;;19.10;7.25;;;;;;;;;;5054586;28;20086;-81
2022/11/11 06:51:28;;;;;;;21.13;6.93;;;;;;;;;;5054971;28;20041;-80
2022/11/11 06:54:20;;;;;;;17.33;6.78;;;;;;;;;;5044274;28;20036;-80
2022/11/11 06:57:12;;;;;;;18.98;6.95;;;;;;;;;;5056121;28;20055;-81
2022/11/11 06:59:58;;;;;;;17.67;7.72;;;;;;;;;;5053332;28;20401;-81
2022/11/11 07:02:44;;;;;;;16.17;6.93;;;;;;;;;;5049893;28;20398;-80
2022/11/11 07:05:31;;;;;;;16.10;7.40;;;;;;;;;;5059316;28;20059;-81
2022/11/11 07:08:18;;;;;;;16.52;7.57;;;;;;;;;;5055093;28;20033;-80
2022/11/11 07:11:11;;;;;;;21.35;7.88;;;;;;;;;;5046375;28;20041;-81
2022/11/11 07:14:04;;;;;;;20.27;8.20;;;;;;;;;;5054182;28;20036;-82
2022/11/11 07:17:14;;;;;;;15.90;7.32;;;;;;;;;;5058822;28;20438;-80
2022/11/11 07:20:00;;;;;;;17.80;9.18;;;;;;;;;;5056528;28;20174;-81
2022/11/11 07:22:52;;;;;;;19.52;8.23;;;;;;;;;;5056267;28;20047;-81
2022/11/11 07:25:38;;;;;;;17.80;8.13;;;;;;;;;;5055925;28;20538;-81
2022/11/11 07:28:30;;;;;;;19.73;8.38;;;;;;;;;;5047486;28;20045;-82
2022/11/11 07:31:16;;;;;;;17.85;8.35;;;;;;;;;;5030444;28;20060;-82
2022/11/11 07:34:08;;;;;;;18.83;8.48;;;;;;;;;;5053373;28;20036;-82
2022/11/11 07:37:20;;;;;;;24.27;8.40;;;;;;;;;;5055770;28;20120;-83
2022/11/11 07:40:15;;;;;;;16.05;7.97;;;;;;;;;;5054571;28;20037;-82
2022/11/11 07:43:00;;;;;;;21.63;8.65;;;;;;;;;;5055354;28;20055;-82
2022/11/11 07:45:46;;;;;;;18.27;8.35;;;;;;;;;;5055234;28;20101;-82
2022/11/11 07:48:32;;;;;;;17.02;9.07;;;;;;;;;;5051174;28;20048;-82
2022/11/11 07:51:25;;;;;;;21.83;8.63;;;;;;;;;;5051262;28;20045;-82
2022/11/11 07:54:15;;;;;;;22.63;8.63;;;;;;;;;;5037322;28;20044;-81
2022/11/11 07:57:08;;;;;;;15.93;9.00;;;;;;;;;;5051695;28;20048;-82
2022/11/11 07:59:56;;;;;;;20.92;8.52;;;;;;;;;;5013080;28;20049;-80
2022/11/11 08:02:54;;;;;;;18.73;8.30;;;;;;;;;;5052214;28;20052;-82
2022/11/11 08:06:16;;;;;;;15.88;8.07;;;;;;;;;;5035365;28;20500;-81
2022/11/11 08:09:33;;;;;;;19.27;8.93;;;;;;;;;;5052607;28;20041;-80
2022/11/11 08:15:42;;;;;;;22.63;8.90;;;;;;;;;;5058058;28;20381;-82
2022/11/11 08:19:08;;;;;;;24.05;9.02;;;;;;;;;;5053301;28;20037;-81
2022/11/11 08:22:05;;;;;;;21.60;9.02;;;;;;;;;;5038820;28;20056;-84
2022/11/11 08:24:56;;;;;;;21.48;9.18;;;;;;;;;;5048190;28;20053;-83
2022/11/11 08:27:57;;;;;;;19.33;9.35;;;;;;;;;;5047241;28;20049;-81
2022/11/11 08:30:47;;;;;;;24.55;9.50;;;;;;;;;;5026632;28;20051;-81
2022/11/11 08:33:35;;;;;;;19.00;9.57;;;;;;;;;;5042825;28;20033;-81
2022/11/11 08:36:25;;;;;;;21.08;9.82;;;;;;;;;;5053565;28;20977;-82
2022/11/11 08:39:12;;;;;;;19.73;9.75;;;;;;;;;;5058163;28;20130;-84
2022/11/11 08:42:06;;;;;;;20.73;9.32;;;;;;;;;;5033872;28;20052;-84
2022/11/11 08:45:03;;;;;;;23.77;10.85;;;;;;;;;;5057826;28;20114;-82
2022/11/11 08:47:52;;;;;;;24.05;9.68;;;;;;;;;;5054912;28;20080;-82
2022/11/11 08:50:43;;;;;;;21.10;10.10;;;;;;;;;;5055706;28;20049;-81
2022/11/11 08:53:32;;;;;;;23.02;9.45;;;;;;;;;;5052969;28;20037;-81
2022/11/11 08:56:18;;;;;;;22.95;9.70;;;;;;;;;;5041259;28;20044;-83
2022/11/11 08:59:15;;;;;;;19.00;9.23;;;;;;;;;;5055966;28;20108;-82
2022/11/11 09:02:16;;;;;;;19.15;9.75;;;;;;;;;;5040065;28;20049;-81
2022/11/11 09:05:06;;;;;;;18.60;9.10;;;;;;;;;;5040438;28;20445;-81
2022/11/11 09:07:54;;;;;;;19.58;9.80;;;;;;;;;;5053841;28;20052;-81
2022/11/11 09:10:42;;;;;;;18.25;9.25;;;;;;;;;;5036606;28;20052;-81
2022/11/11 09:13:47;;;;;;;20.95;9.85;;;;;;;;;;5031103;28;20083;-81
2022/11/11 09:16:34;;;;;;;19.58;9.68;;;;;;;;;;5028410;28;20163;-84
2022/11/11 09:19:22;;;;;;;18.17;9.20;;;;;;;;;;5027826;28;20045;-83
2022/11/11 09:22:08;;;;;;;22.02;9.13;;;;;;;;;;5058323;28;20101;-81
2022/11/11 09:24:55;;;;;;;24.15;9.93;;;;;;;;;;5058661;28;20524;-80
2022/11/11 09:27:42;;;;;;;22.55;10.00;;;;;;;;;;5058530;28;20520;-84
2022/11/11 09:30:29;;;;;;;24.42;9.63;;;;;;;;;;5059733;28;20048;-84
2022/11/11 09:33:17;;;;;;;12.98;8.48;;;;;;;;;;5058678;28;20455;-83
2022/11/11 09:36:21;;;;;;;18.98;8.85;;;;;;;;;;5062910;28;20044;-83
2022/11/11 09:39:32;;;;;;;21.08;9.50;;;;;;;;;;5059373;28;20048;-81
2022/11/11 09:42:27;;;;;;;21.88;9.38;;;;;;;;;;5056790;28;20135;-81
2022/11/11 09:45:15;;;;;;;22.73;9.20;;;;;;;;;;5055978;28;20070;-81
2022/11/11 09:48:20;;;;;;;21.58;9.45;;;;;;;;;;5056094;28;20067;-81
2022/11/11 09:51:22;;;;;;;25.00;9.75;;;;;;;;;;5058055;28;20098;-81
2022/11/11 09:54:16;;;;;;;23.00;9.70;;;;;;;;;;5059066;28;20562;-81
2022/11/11 09:57:22;;;;;;;21.27;9.38;;;;;;;;;;5053990;28;20044;-81
2022/11/11 10:00:24;;;;;;;21.63;10.20;;;;;;;;;;5058544;28;20067;-80
2022/11/11 10:03:20;;;;;;;21.60;9.32;;;;;;;;;;5053341;28;20500;-80
2022/11/11 10:06:12;;;;;;;19.50;8.45;;;;;;;;;;5055054;28;20055;-81
2022/11/11 10:09:12;;;;;;;23.90;10.63;;;;;;;;;;5052454;28;20092;-81
2022/11/11 10:12:01;;;;;;;21.85;9.10;;;;;;;;;;5054593;28;20165;-81
2022/11/11 10:14:49;;;;;;;17.40;9.35;;;;;;;;;;5058433;28;20056;-82
2022/11/11 10:17:48;;;;;;;20.65;9.68;;;;;;;;;;5048354;28;20043;-81
2022/11/11 10:20:41;;;;;;;23.15;10.65;;;;;;;;;;5049949;28;20158;-81
2022/11/11 10:23:59;;;;;;;22.55;10.02;;;;;;;;;;5052019;28;20164;-81
2022/11/11 10:26:47;;;;;;;18.30;8.57;;;;;;;;;;5014118;28;20511;-81
2022/11/11 10:29:43;;;;;;;20.33;9.82;;;;;;;;;;5040501;28;20037;-81
2022/11/11 10:32:33;;;;;;;22.02;9.50;;;;;;;;;;5042984;28;20132;-81
2022/11/11 10:35:26;;;;;;;24.73;9.00;;;;;;;;;;5039863;28;20135;-81
2022/11/11 10:38:22;;;;;;;20.65;9.10;;;;;;;;;;5055059;28;20124;-81
2022/11/11 10:41:23;;;;;;;21.55;9.38;;;;;;;;;;5055700;28;20231;-81
2022/11/11 10:44:25;;;;;;;20.00;8.93;;;;;;;;;;5057965;28;20147;-81
2022/11/11 10:47:18;;;;;;;24.08;10.07;;;;;;;;;;5024035;28;20045;-81
2022/11/11 10:50:22;;;;;;;18.58;8.68;;;;;;;;;;5055902;28;20107;-81
2022/11/11 10:53:21;;;;;;;17.25;8.95;;;;;;;;;;5057738;28;20409;-82
2022/11/11 10:56:14;;;;;;;18.98;9.52;;;;;;;;;;5053120;28;20041;-82
2022/11/11 10:59:55;;;;;;;17.33;8.13;;;;;;;;;;5055870;28;20035;-82
2022/11/11 11:03:10;;;;;;;17.88;8.85;;;;;;;;;;4941372;29;20051;-82
2022/11/11 11:06:30;;;;;;;18.33;9.68;;;;;;;;;;4940576;28;20400;-82
2022/11/11 11:09:23;;;;;;;14.43;8.48;;;;;;;;;;4941081;28;20503;-80
2022/11/11 11:12:34;;;;;;;20.25;8.95;;;;;;;;;;4939079;29;20051;-80
2022/11/11 11:15:23;;;;;;;18.13;8.38;;;;;;;;;;4940068;28;20051;-82
2022/11/11 11:18:12;;;;;;;19.05;8.75;;;;;;;;;;4939913;28;20058;-81
2022/11/11 11:21:01;;;;;;;18.27;8.43;;;;;;;;;;4936968;29;20152;-82
2022/11/11 11:23:46;;;;;;;18.80;8.60;;;;;;;;;;4940489;28;20105;-82
2022/11/11 11:26:44;;;;;;;19.85;8.70;;;;;;;;;;4937646;29;20086;-82
2022/11/11 11:29:41;;;;;;;19.05;8.88;;;;;;;;;;4941950;28;20051;-82
2022/11/11 11:32:31;;;;;;;16.25;8.93;;;;;;;;;;4930354;29;20071;-82
2022/11/11 11:35:31;;;;;;;17.55;8.57;;;;;;;;;;4930918;29;20504;-82
2022/11/11 11:38:39;;;;;;;17.75;9.10;;;;;;;;;;4948539;28;20051;-81
2022/11/11 11:41:50;;;;;;;21.15;9.45;;;;;;;;;;5047246;28;20060;-84
2022/11/11 11:44:38;;;;;;;19.02;8.95;;;;;;;;;;5055652;28;20088;-86
2022/11/11 11:47:55;;;;;;;17.38;9.25;;;;;;;;;;4994798;28;20065;-85
2022/11/11 11:51:23;;;;;;;21.75;8.18;;;;;;;;;;4988628;28;20101;-85
2022/11/11 11:55:02;;;;;;;18.25;8.38;;;;;;;;;;4991709;28;20165;-84
2022/11/11 11:57:51;;;;;;;;;;;;;;;;;;4906377;29;20060;-84
2022/11/11 12:00:50;;;;;;;15.30;8.45;;;;;;;;;;4906257;29;20398;-84
2022/11/11 12:03:39;;;;;;;17.25;8.82;;;;;;;;;;4906366;29;20104;-84
2022/11/11 12:06:45;;;;;;;19.73;9.30;;;;;;;;;;4891208;29;20067;-84
2022/11/11 12:10:17;;;;;;;20.52;8.18;;;;;;;;;;4896128;29;20524;-84
2022/11/11 12:13:29;;;;;;;16.80;8.70;;;;;;;;;;4905425;29;20048;-84
2022/11/11 12:16:25;;;;;;;17.38;9.57;;;;;;;;;;4905394;29;20056;-83
2022/11/11 12:19:37;;;;;;;19.98;9.20;;;;;;;;;;4938189;28;20183;-84
2022/11/11 12:22:48;;;;;;;20.15;8.70;;;;;;;;;;4946908;28;20126;-84
2022/11/11 12:25:42;;;;;;;17.98;8.77;;;;;;;;;;4946265;28;20056;-84
2022/11/11 12:29:02;;;;;;;20.92;8.57;;;;;;;;;;4933777;29;20562;-84
2022/11/11 12:31:58;;;;;;;18.38;9.07;;;;;;;;;;4946336;28;20443;-84
2022/11/11 12:35:35;;;;;;;20.90;9.85;;;;;;;;;;5007061;28;20052;-84
2022/11/11 12:38:45;;;;;;;18.00;8.55;;;;;;;;;;4954898;28;20053;-85
2022/11/11 12:41:48;;;;;;;21.23;10.35;;;;;;;;;;4941925;28;20055;-84
2022/11/11 12:45:09;;;;;;;20.67;9.13;;;;;;;;;;4957831;28;20193;-83
2022/11/11 12:48:15;;;;;;;20.85;9.32;;;;;;;;;;4955249;28;20545;-84
2022/11/11 12:51:12;;;;;;;21.80;9.18;;;;;;;;;;4957642;28;20498;-85
2022/11/11 12:54:19;;;;;;;16.95;9.45;;;;;;;;;;4958342;28;20074;-85
2022/11/11 12:57:26;;;;;;;18.15;9.57;;;;;;;;;;4957188;28;20076;-85
2022/11/11 13:00:20;;;;;;;18.75;9.32;;;;;;;;;;4945810;28;20043;-85
2022/11/11 13:03:24;;;;;;;16.27;8.63;;;;;;;;;;4941587;28;20058;-84
2022/11/11 13:06:16;;;;;;;19.42;9.70;;;;;;;;;;4955896;28;20047;-85
2022/11/11 13:09:07;;;;;;;16.30;7.93;;;;;;;;;;4959061;28;20047;-85
2022/11/11 13:12:18;;;;;;;16.05;7.93;;;;;;;;;;4957706;28;20158;-86
2022/11/11 13:15:25;;;;;;;17.52;8.93;;;;;;;;;;5048688;28;20053;-85
2022/11/11 13:18:47;;;;;;;19.15;8.38;;;;;;;;;;5053304;28;20044;-85
2022/11/11 13:22:05;;;;;;;15.27;8.13;;;;;;;;;;5055089;28;20036;-85
2022/11/11 13:24:51;;;;;;;18.42;8.30;;;;;;;;;;5051543;28;21678;-85
2022/11/11 13:27:45;;;;;;;13.80;8.00;;;;;;;;;;5036629;28;20057;-85
2022/11/11 13:30:56;;;;;;;15.05;7.80;;;;;;;;;;5037276;28;20047;-84
2022/11/11 13:33:54;;;;;;;15.88;7.95;;;;;;;;;;5044975;28;20065;-85
2022/11/11 13:36:50;;;;;;;15.82;8.57;;;;;;;;;;5029998;28;20154;-85
2022/11/11 13:39:50;;;;;;;19.90;8.05;;;;;;;;;;5054289;28;20179;-84
2022/11/11 13:42:51;;;;;;;15.45;8.25;;;;;;;;;;5039474;28;20043;-84
2022/11/11 13:45:40;;;;;;;15.93;8.68;;;;;;;;;;5050412;28;20087;-84
2022/11/11 13:48:44;;;;;;;16.77;8.63;;;;;;;;;;5036189;28;20080;-83
2022/11/11 13:52:03;;;;;;;18.35;8.55;;;;;;;;;;5051414;28;20138;-83
2022/11/11 13:54:56;;;;;;;20.20;9.38;;;;;;;;;;5050324;28;20052;-83
2022/11/11 13:57:51;;;;;;;21.75;9.23;;;;;;;;;;5040236;28;20033;-83
2022/11/11 14:00:42;;;;;;;15.75;9.55;;;;;;;;;;5051722;28;20037;-83
2022/11/11 14:03:43;;;;;;;16.80;8.90;;;;;;;;;;5051371;28;20446;-82
2022/11/11 14:06:49;;;;;;;18.05;9.73;;;;;;;;;;5051690;28;20045;-83
2022/11/11 14:09:53;;;;;;;16.45;8.45;;;;;;;;;;5059026;28;20040;-84
2022/11/11 14:12:41;;;;;;;16.42;8.95;;;;;;;;;;5053046;28;20048;-84
2022/11/11 14:15:37;;;;;;;16.10;9.30;;;;;;;;;;5055191;28;20037;-83
2022/11/11 14:18:35;;;;;;;20.25;9.60;;;;;;;;;;5055610;28;20049;-84
2022/11/11 14:21:55;;;;;;;23.70;10.63;;;;;;;;;;5055623;28;20078;-83
2022/11/11 14:24:45;;;;;;;19.05;10.45;;;;;;;;;;5053753;28;20045;-84
2022/11/11 14:27:33;;;;;;;17.88;9.55;;;;;;;;;;5036331;28;20527;-84
2022/11/11 14:30:36;;;;;;;16.20;9.50;;;;;;;;;;5048930;28;20083;-83
2022/11/11 14:33:42;;;;;;;21.73;9.68;;;;;;;;;;5051084;28;20049;-83
2022/11/11 14:36:34;;;;;;;16.42;8.93;;;;;;;;;;5054314;28;20045;-83
2022/11/11 14:39:43;;;;;;;20.38;10.10;;;;;;;;;;5051304;28;20524;-83
2022/11/11 14:42:33;;;;;;;17.35;9.65;;;;;;;;;;5041210;28;20037;-83
2022/11/11 14:45:24;;;;;;;18.45;9.88;;;;;;;;;;5049096;28;20052;-83
2022/11/11 14:48:47;;;;;;;18.17;9.35;;;;;;;;;;5052949;28;20092;-82
2022/11/11 14:51:54;;;;;;;14.38;9.25;;;;;;;;;;5052345;28;20067;-82
2022/11/11 14:55:08;;;;;;;13.55;8.45;;;;;;;;;;5025838;28;20041;-82
2022/11/11 14:58:00;;;;;;;22.92;9.07;;;;;;;;;;5051563;28;20059;-85
2022/11/11 15:00:51;;;;;;;16.90;9.00;;;;;;;;;;5052676;28;20065;-84
2022/11/11 15:03:43;;;;;;;21.10;9.23;;;;;;;;;;5054043;28;20365;-87
2022/11/11 15:07:37;;;;;;;17.95;9.05;;;;;;;;;;5053366;28;20123;-86
2022/11/11 15:11:04;;;;;;;22.80;8.15;;;;;;;;;;5055487;28;20057;-82
2022/11/11 15:14:09;;;;;;;13.68;8.10;;;;;;;;;;5053263;28;20037;-81
2022/11/11 15:17:30;;;;;;;15.68;8.88;;;;;;;;;;5052674;28;20048;-82
2022/11/11 15:20:41;;;;;;;25.33;9.07;;;;;;;;;;5052801;28;20064;-81
2022/11/11 15:23:45;;;;;;;36.33;10.13;;;;;;;;;;5051706;28;20130;-80
2022/11/11 15:26:52;;;;;;;30.40;9.38;;;;;;;;;;5053579;28;20512;-81
2022/11/11 15:30:08;;;;;;;25.20;9.55;;;;;;;;;;5053293;28;20045;-82
2022/11/11 15:33:05;;;;;;;13.70;7.70;;;;;;;;;;4978443;28;20066;-82
2022/11/11 15:36:12;;;;;;;14.75;7.43;;;;;;;;;;4975844;28;20050;-82
2022/11/11 15:39:09;;;;;;;16.95;8.30;;;;;;;;;;4975621;28;20089;-82
2022/11/11 15:41:56;;;;;;;16.65;8.52;;;;;;;;;;4959430;28;20070;-82
2022/11/11 15:44:42;;;;;;;14.82;7.80;;;;;;;;;;4974183;28;20145;-82
2022/11/11 15:47:35;;;;;;;13.70;6.90;;;;;;;;;;4976242;28;20402;-82
2022/11/11 15:50:22;;;;;;;16.10;8.23;;;;;;;;;;4970827;28;20108;-83
2022/11/11 15:53:12;;;;;;;13.70;7.28;;;;;;;;;;4959673;28;20046;-80
2022/11/11 15:56:00;;;;;;;14.85;7.25;;;;;;;;;;4967607;28;20046;-81
2022/11/11 15:58:46;;;;;;;14.23;7.80;;;;;;;;;;4975486;28;20058;-81
2022/11/11 16:05:33;;;;;;;11.65;6.80;;;;;;;;;;4975143;28;20053;-80
2022/11/11 16:08:57;;;;;;;13.32;6.65;;;;;;;;;;4986712;28;20052;-82
2022/11/11 16:12:38;;;;;;;13.90;7.00;;;;;;;;;;5056521;28;20049;-83
2022/11/11 16:16:23;;;;;;;12.65;7.10;;;;;;;;;;5054605;28;20105;-82
2022/11/11 16:19:38;;;;;;;15.13;8.05;;;;;;;;;;5048066;28;20037;-82
2022/11/11 16:22:37;;;;;;;17.50;6.93;;;;;;;;;;5052452;28;20037;-81
2022/11/11 16:25:22;;;;;;;12.68;6.90;;;;;;;;;;5048981;28;20178;-81
2022/11/11 16:28:13;;;;;;;14.50;8.52;;;;;;;;;;5053092;28;20076;-81
2022/11/11 16:31:19;;;;;;;20.17;8.75;;;;;;;;;;5058244;28;20408;-82
2022/11/11 16:37:51;;;;;;;13.32;7.55;;;;;;;;;;5054931;28;20036;-82
2022/11/11 16:40:42;;;;;;;14.95;7.72;;;;;;;;;;5052884;28;20043;-81
2022/11/11 16:43:54;;;;;;;17.63;8.18;;;;;;;;;;5045271;28;20048;-81
2022/11/11 16:46:40;;;;;;;15.75;7.65;;;;;;;;;;5061106;28;20119;-81
2022/11/11 16:49:33;;;;;;;13.82;7.78;;;;;;;;;;5058104;28;20060;-82
2022/11/11 16:52:23;;;;;;;13.68;7.68;;;;;;;;;;5045221;28;20048;-81
2022/11/11 16:55:18;;;;;;;12.35;6.85;;;;;;;;;;5055805;28;20377;-82
2022/11/11 16:58:16;;;;;;;14.13;6.70;;;;;;;;;;5057834;28;20056;-81
2022/11/11 17:01:02;;;;;;;15.15;6.50;;;;;;;;;;5052041;28;20029;-81
2022/11/11 17:03:58;;;;;;;11.27;6.07;;;;;;;;;;5052634;28;20090;-81
2022/11/11 17:06:55;;;;;;;12.88;7.18;;;;;;;;;;5055847;28;20052;-81
2022/11/11 17:09:43;;;;;;;13.93;6.70;;;;;;;;;;5055045;28;20047;-81
2022/11/11 17:12:31;;;;;;;10.80;6.78;;;;;;;;;;5051698;28;20041;-81
2022/11/11 17:15:22;;;;;;;15.27;7.00;;;;;;;;;;5055696;28;20115;-79
2022/11/11 17:18:08;;;;;;;14.50;7.10;;;;;;;;;;5052541;28;20535;-79
2022/11/11 17:20:55;;;;;;;16.77;7.60;;;;;;;;;;5042962;28;20029;-80
2022/11/11 17:24:07;;;;;;;15.10;6.97;;;;;;;;;;5053778;28;20041;-80
2022/11/11 17:27:00;;;;;;;16.55;7.32;;;;;;;;;;5035210;28;20037;-79
2022/11/11 17:29:52;;;;;;;11.77;6.25;;;;;;;;;;5056592;28;20033;-79
2022/11/11 17:32:46;;;;;;;12.70;6.78;;;;;;;;;;5053532;28;20037;-80
2022/11/11 17:35:32;;;;;;;13.40;6.63;;;;;;;;;;5053452;28;20079;-79
2022/11/11 17:38:24;;;;;;;17.10;7.20;;;;;;;;;;5042370;28;20489;-79
2022/11/11 17:41:13;;;;;;;14.82;7.03;;;;;;;;;;5059131;28;20492;-79
2022/11/11 17:44:24;;;;;;;14.85;7.60;;;;;;;;;;5045150;28;20031;-79
2022/11/11 17:47:16;;;;;;;14.48;7.22;;;;;;;;;;5055227;28;20033;-81
2022/11/11 17:50:02;;;;;;;16.58;7.63;;;;;;;;;;5059988;28;20118;-79
2022/11/11 17:52:55;;;;;;;15.13;7.65;;;;;;;;;;5054213;28;20515;-79
2022/11/11 17:55:52;;;;;;;14.10;7.05;;;;;;;;;;5057461;28;20052;-79
2022/11/11 17:58:38;;;;;;;14.77;8.02;;;;;;;;;;5056076;28;20064;-79
2022/11/11 18:01:32;;;;;;;18.52;9.77;;;;;;;;;;5046996;28;20147;-79
2022/11/11 18:04:18;;;;;;;15.85;7.97;;;;;;;;;;5050764;28;20052;-79
2022/11/11 18:07:04;;;;;;;15.77;8.25;;;;;;;;;;5057896;28;20044;-79
2022/11/11 18:09:56;;;;;;;14.77;7.90;;;;;;;;;;5053701;28;20082;-79
2022/11/11 18:12:42;;;;;;;14.85;7.60;;;;;;;;;;5051916;28;20129;-80
2022/11/11 18:15:28;;;;;;;21.42;10.07;;;;;;;;;;5054241;28;20045;-79
2022/11/11 18:18:14;;;;;;;17.38;9.25;;;;;;;;;;5055995;28;20047;-79
2022/11/11 18:21:04;;;;;;;14.40;8.23;;;;;;;;;;5054440;28;20033;-79
2022/11/11 18:23:50;;;;;;;14.30;8.10;;;;;;;;;;5045265;28;20052;-79
2022/11/11 18:26:37;;;;;;;16.65;8.18;;;;;;;;;;5053201;28;20054;-79
2022/11/11 18:29:48;;;;;;;14.85;8.07;;;;;;;;;;5023243;28;20068;-79
2022/11/11 18:32:47;;;;;;;17.83;8.93;;;;;;;;;;5037609;28;21993;-80
2022/11/11 18:35:38;;;;;;;16.90;8.18;;;;;;;;;;5056884;28;20049;-79
2022/11/11 18:38:27;;;;;;;17.48;9.18;;;;;;;;;;5055096;28;20059;-79
2022/11/11 18:41:14;;;;;;;16.10;9.25;;;;;;;;;;5056250;28;20124;-79
2022/11/11 18:44:06;;;;;;;16.40;9.57;;;;;;;;;;5057406;28;20051;-79
2022/11/11 18:46:53;;;;;;;19.88;9.18;;;;;;;;;;5037638;28;20040;-79
2022/11/11 18:49:40;;;;;;;17.48;9.10;;;;;;;;;;5053923;28;20091;-79
2022/11/11 18:52:26;;;;;;;16.00;7.97;;;;;;;;;;5045870;28;20179;-79
2022/11/11 18:55:12;;;;;;;12.75;7.70;;;;;;;;;;5057435;28;20046;-79
2022/11/11 18:58:04;;;;;;;16.35;8.48;;;;;;;;;;5049158;28;20386;-79